Terrebonne, Oregon
Current Conditions -  °F | °C
As of 4:56 PM on Saturday 25 Oct 2014 (Local Time) from KRDM Reporting Station
Clear Clear  
Wind Chill: 55°   Ceiling: Unl
Heat Index: 55°   Visibility: 10mi
Dew Point: 39°   Wind: 20mph
Humidity: 55%   Direction: 210°SSW
Pressure: 29.63"   Gusts: 30mph
Location:  44.35°N, 121.18°W
Report Text: KRDM 252356Z 21017G26KT 10SM CLR 13/04 A2963 RMK AO2 PK WND 20041/2258 SLP027 T01280039 10189 20128 53036
Loading
Personal Weather Stations






























Interactive Weather Map
Tropical Storm Tracking
New forecast layout! Learn more

10-Day Weather Forecast

Advertisements
Track Severe Weather on mobile